Kitanomaru — JD2835 — position and weather

sailwx.info

Track history (hours):
 
Tides and Currents Weather Stations Pressure Air Temp Water Temp Dewpoint Dewpoint Depression Visibility Wind Speed Wind Dir Waves Ship Positions

Kitanomaru

Last reported at 2014-Sep-19 05:33 UTC. Time now 2014-Sep-22 06:16 UTC.
Position N 35°33' E 140°03'.

Length 39 m; draft 4 m.

Type: Tug. MMSI: 431000773.

Date/timePositionNaut miles runAvg speedWind from/ knotsBaromVisibWave heightAir tempDewpointWater temp
2014-Sep-19 05:33N 35°33' E 140°03'4 4.0
2014-Sep-19 04:33N 35°36' E 140°07'0 0.0
2014-Sep-19 03:33N 35°36' E 140°07'0 0.0
2014-Sep-19 02:33N 35°36' E 140°07'0 0.0
2014-Sep-19 01:33N 35°36' E 140°07'0 0.0
2014-Sep-19 00:33N 35°36' E 140°07'0 0.0
2014-Sep-18 23:34N 35°36' E 140°07'2 1.9
2014-Sep-18 22:33N 35°35' E 140°05'1 0.7
2014-Sep-18 21:33N 35°35' E 140°04'0 0.1
2014-Sep-18 20:33N 35°35' E 140°04'2 2.3
2014-Sep-18 19:33N 35°36' E 140°06'0 0.0
2014-Sep-18 18:33N 35°36' E 140°06'0 0.0
2014-Sep-18 17:33N 35°36' E 140°06'0 0.0
2014-Sep-18 16:33N 35°36' E 140°06'0 0.0
2014-Sep-18 15:33N 35°36' E 140°06'0 0.0
2014-Sep-18 14:33N 35°36' E 140°06'0 0.0
2014-Sep-18 13:33N 35°36' E 140°06'0 0.0
2014-Sep-18 12:33N 35°36' E 140°06'0 0.0
2014-Sep-18 11:33N 35°36' E 140°06'0 0.0
2014-Sep-18 10:33N 35°36' E 140°06'0 0.0
2014-Sep-18 09:33N 35°36' E 140°06'0 0.0
2014-Sep-18 08:33N 35°36' E 140°06'0 0.0
2014-Sep-18 07:34N 35°36' E 140°06'0 0.0
2014-Sep-18 06:33N 35°36' E 140°06'0 0.0
2014-Sep-18 05:33N 35°36' E 140°06'0 0.0
2014-Sep-18 04:33N 35°36' E 140°06'0 0.0
2014-Sep-18 03:33N 35°36' E 140°06'0 0.0
2014-Sep-18 02:33N 35°36' E 140°06'4 4.1
2014-Sep-18 01:33N 35°34' E 140°02'3 2.9
2014-Sep-18 00:33N 35°31' E 140°00'2 1.8
2014-Sep-17 23:34N 35°31' E 140°02'6 6.0
2014-Sep-17 22:33N 35°36' E 140°06'0 0.0
2014-Sep-17 21:34N 35°36' E 140°06'0 0.0
2014-Sep-17 20:33N 35°36' E 140°06'0 0.0
2014-Sep-17 19:33N 35°36' E 140°06'0 0.0
2014-Sep-17 18:34N 35°36' E 140°06'0 0.0
2014-Sep-17 17:33N 35°36' E 140°06'0 0.0
2014-Sep-17 16:33N 35°36' E 140°06'0 0.0
2014-Sep-17 15:33N 35°36' E 140°06'0 0.0
2014-Sep-17 14:33N 35°36' E 140°06'0 0.0
2014-Sep-17 13:33N 35°36' E 140°06'0 0.0
2014-Sep-17 12:33N 35°36' E 140°06'0 0.0
2014-Sep-17 11:33N 35°36' E 140°06'0 0.0
2014-Sep-17 10:33N 35°36' E 140°06'0 0.0
2014-Sep-17 09:34N 35°36' E 140°06'0 0.0
2014-Sep-17 08:33N 35°36' E 140°06'0 0.0
2014-Sep-17 07:34N 35°36' E 140°06'0 0.0
2014-Sep-17 06:34N 35°36' E 140°06'4 3.6
2014-Sep-17 05:33N 35°34' E 140°03'3 2.6
2014-Sep-17 04:33N 35°31' E 140°02'1 1.2
2014-Sep-17 03:33N 35°31' E 140°01'0 0.2
2014-Sep-17 02:33N 35°31' E 140°01'6 5.6
2014-Sep-17 01:33N 35°36' E 140°05'1 0.6
2014-Sep-17 00:33N 35°35' E 140°04'2 1.5
2014-Sep-16 23:33N 35°34' E 140°03'3 2.6
2014-Sep-16 22:33N 35°32' E 140°05'5 4.9
2014-Sep-16 21:34N 35°35' E 140°00'5 5.4
2014-Sep-16 20:33N 35°36' E 140°06'0 0.0
2014-Sep-16 19:33N 35°36' E 140°06'0 0.0
2014-Sep-16 18:33N 35°36' E 140°06'0 0.0
2014-Sep-16 17:33N 35°36' E 140°06'0 0.0
2014-Sep-16 16:33N 35°36' E 140°06'0 0.0
2014-Sep-16 15:34N 35°36' E 140°06'0 0.0
2014-Sep-16 14:33N 35°36' E 140°06'0 0.0
2014-Sep-16 13:34N 35°36' E 140°06'0 0.0
2014-Sep-16 12:33N 35°36' E 140°06'0 0.0
2014-Sep-16 11:33N 35°36' E 140°06'0 0.0
2014-Sep-16 10:33N 35°36' E 140°06'0 0.0
2014-Sep-16 09:33N 35°36' E 140°06'0 0.0
2014-Sep-16 08:33N 35°36' E 140°06'0 0.0
2014-Sep-16 07:33N 35°36' E 140°06'0 0.0
2014-Sep-16 06:34N 35°36' E 140°06'0 0.0
2014-Sep-16 05:34N 35°36' E 140°06'0 0.0
2014-Sep-16 04:33N 35°36' E 140°06'0 0.0
2014-Sep-16 03:33N 35°36' E 140°06'0 0.0
2014-Sep-16 02:33N 35°36' E 140°06'0 0.0
2014-Sep-16 01:33N 35°36' E 140°06'4 4.1
2014-Sep-16 00:33N 35°33' E 140°03'6 6.0
2014-Sep-15 23:34N 35°29' E 139°58'4 4.1
2014-Sep-15 22:33N 35°32' E 140°02'6 5.9
2014-Sep-15 21:34N 35°36' E 140°06'0 0.0
2014-Sep-15 20:33N 35°36' E 140°06'0 0.0
2014-Sep-15 19:33N 35°36' E 140°06'0 0.0
2014-Sep-15 18:33N 35°36' E 140°06'0 0.0
2014-Sep-15 17:33N 35°36' E 140°06'0 0.0
2014-Sep-15 16:33N 35°36' E 140°06'0 0.0
2014-Sep-15 15:33N 35°36' E 140°06'0 0.0
2014-Sep-15 14:33N 35°36' E 140°06'0 0.0
2014-Sep-15 13:33N 35°36' E 140°06'0 0.0
2014-Sep-15 12:33N 35°36' E 140°06'0 0.0
2014-Sep-15 11:33N 35°36' E 140°06'0 0.0
2014-Sep-15 10:33N 35°36' E 140°06'0 0.0
2014-Sep-15 09:33N 35°36' E 140°06'0 0.0
2014-Sep-15 08:33N 35°36' E 140°06'0 0.1
2014-Sep-15 07:33N 35°36' E 140°06'1010.1
2014-Sep-15 06:34N 35°29' E 139°58'1 0.7
2014-Sep-15 05:33N 35°28' E 139°58'1 1.1
2014-Sep-15 04:33N 35°29' E 139°57'0 0.0
2014-Sep-15 03:33N 35°29' E 139°57'0 0.0
2014-Sep-15 02:33N 35°29' E 139°57'0 0.0
2014-Sep-15 01:34N 35°29' E 139°57'2 2.1
2014-Sep-15 00:33N 35°31' E 139°56'0 0.1
2014-Sep-14 23:33N 35°31' E 139°56'3 2.6
2014-Sep-14 22:33N 35°29' E 139°53'5 4.9
2014-Sep-14 21:33N 35°32' E 139°58'8 7.6
2014-Sep-14 20:33N 35°36' E 140°06'0 0.0
2014-Sep-14 19:33N 35°36' E 140°06'0 0.0
2014-Sep-14 18:33N 35°36' E 140°06'0 0.0
2014-Sep-14 17:33N 35°36' E 140°06'0 0.0
2014-Sep-14 16:33N 35°36' E 140°06'0 0.0
2014-Sep-14 15:33N 35°36' E 140°06'0 0.0
2014-Sep-14 14:33N 35°36' E 140°06'0 0.0
2014-Sep-14 13:33N 35°36' E 140°06'0 0.0
2014-Sep-14 12:33N 35°36' E 140°06'0 0.0
2014-Sep-14 11:33N 35°36' E 140°06'0 0.0
2014-Sep-14 10:33N 35°36' E 140°06'0 0.0
2014-Sep-14 09:33N 35°36' E 140°06'7 7.3
2014-Sep-14 08:33N 35°31' E 139°60'3 3.0
2014-Sep-14 07:33N 35°28' E 139°58'1 1.0
2014-Sep-14 06:34N 35°29' E 139°57'0 0.5
2014-Sep-14 05:34N 35°29' E 139°58'1 0.6
2014-Sep-14 04:33N 35°29' E 139°59'2 2.3
2014-Sep-14 03:33N 35°30' E 140°01'2 1.9
2014-Sep-14 02:33N 35°31' E 139°60'6 6.1
2014-Sep-14 01:33N 35°36' E 140°05'1 0.3
2014-Sep-13 21:33N 35°36' E 140°06'0 0.0
2014-Sep-13 20:33N 35°36' E 140°06'0 0.0
2014-Sep-13 19:33N 35°36' E 140°06'0 0.0
2014-Sep-13 18:34N 35°36' E 140°06'0 0.0
2014-Sep-13 17:33N 35°36' E 140°06'0 0.0
2014-Sep-13 16:34N 35°36' E 140°06'0 0.0
2014-Sep-13 15:33N 35°36' E 140°06'0 0.0
2014-Sep-13 14:33N 35°36' E 140°06'0 0.0
2014-Sep-13 13:34N 35°36' E 140°06'0 0.0
2014-Sep-13 12:33N 35°36' E 140°06'0 0.0
2014-Sep-13 11:34N 35°36' E 140°06'0 0.0
2014-Sep-13 10:33N 35°36' E 140°06'0 0.0
2014-Sep-13 09:34N 35°36' E 140°06'0 0.0
2014-Sep-13 08:33N 35°36' E 140°06'0 0.0
2014-Sep-13 07:34N 35°36' E 140°06'6 5.6
2014-Sep-13 06:33N 35°32' E 140°02'3 3.3
2014-Sep-13 05:33N 35°29' E 140°01'2 1.6
2014-Sep-13 04:33N 35°29' E 139°59'1 0.6
2014-Sep-13 03:34N 35°28' E 139°58'1 0.9
2014-Sep-13 02:33N 35°28' E 139°57'0 0.1
2014-Sep-13 01:33N 35°28' E 139°57'0 0.1
2014-Sep-13 00:33N 35°28' E 139°57'1 1.1
2014-Sep-12 23:33N 35°28' E 139°58'0 0.4
2014-Sep-12 22:34N 35°29' E 139°59'5 5.0
2014-Sep-12 21:34N 35°33' E 140°02'4 4.3
2014-Sep-12 20:33N 35°36' E 140°05'1 1.3
2014-Sep-12 19:33N 35°36' E 140°06'0 0.0
2014-Sep-12 18:33N 35°36' E 140°06'0 0.0
2014-Sep-12 17:33N 35°36' E 140°06'0 0.0
2014-Sep-12 16:33N 35°36' E 140°06'0 0.0
2014-Sep-12 15:33N 35°36' E 140°06'0 0.0
2014-Sep-12 14:34N 35°36' E 140°06'0 0.0
2014-Sep-12 13:34N 35°36' E 140°06'0 0.0
2014-Sep-12 12:33N 35°36' E 140°06'0 0.0
2014-Sep-12 11:33N 35°36' E 140°06'0 0.0
2014-Sep-12 10:33N 35°36' E 140°06'0 0.0
2014-Sep-12 09:33N 35°36' E 140°06'0 0.0
2014-Sep-12 08:33N 35°36' E 140°06'3 3.3
2014-Sep-12 07:34N 35°34' E 140°04'2 2.2
2014-Sep-12 06:34N 35°32' E 140°02'0 0.0
2014-Sep-12 05:33N 35°32' E 140°02'0 0.0
2014-Sep-12 04:33N 35°32' E 140°02'0 0.0
2014-Sep-12 03:34N 35°32' E 140°02'2 2.5
2014-Sep-12 02:33N 35°30' E 140°01'1 0.9
2014-Sep-12 01:33N 35°29' E 140°00'2 2.2
2014-Sep-12 00:33N 35°31' E 139°60'2 2.2
2014-Sep-11 23:33N 35°31' E 140°02'6 6.0
2014-Sep-11 22:33N 35°36' E 140°06'0 0.0
2014-Sep-11 21:33N 35°36' E 140°06'0 0.0
2014-Sep-11 20:34N 35°36' E 140°06'0 0.0
2014-Sep-11 19:33N 35°36' E 140°06'0 0.0
2014-Sep-11 18:33N 35°36' E 140°06'0 0.0
2014-Sep-11 17:34N 35°36' E 140°06'0 0.0
2014-Sep-11 16:33N 35°36' E 140°06'0 0.0
2014-Sep-11 15:33N 35°36' E 140°06'0 0.0
2014-Sep-11 14:33N 35°36' E 140°06'0 0.0
2014-Sep-11 13:33N 35°36' E 140°06'0 0.0
2014-Sep-11 12:33N 35°36' E 140°06'0 0.0
2014-Sep-11 11:33N 35°36' E 140°06'0 0.0
2014-Sep-11 10:33N 35°36' E 140°06'0 0.0
2014-Sep-11 09:33N 35°36' E 140°06'0 0.0
2014-Sep-11 08:33N 35°36' E 140°06'0 0.0
2014-Sep-11 07:33N 35°36' E 140°06'0 0.0
2014-Sep-11 06:33N 35°36' E 140°06'0 0.4
2014-Sep-11 05:33N 35°36' E 140°06'5 5.4
2014-Sep-11 04:33N 35°34' E 139°60'0 0.0
2014-Sep-11 03:33N 35°34' E 139°60'0 0.0
2014-Sep-11 02:33N 35°34' E 139°60'4 4.2
2014-Sep-11 01:33N 35°30' E 140°02'0 0.0
2014-Sep-11 00:33N 35°30' E 140°02'2 1.5
2014-Sep-10 23:33N 35°31' E 140°00'7 7.0
2014-Sep-10 22:34N 35°36' E 140°06'0 0.0
2014-Sep-10 21:33N 35°36' E 140°06'0 0.0
2014-Sep-10 20:33N 35°36' E 140°06'0 0.0
2014-Sep-10 19:33N 35°36' E 140°06'0 0.0
2014-Sep-10 18:34N 35°36' E 140°06'0 0.0
2014-Sep-10 17:33N 35°36' E 140°06'0 0.0
2014-Sep-10 16:33N 35°36' E 140°06'0 0.0
2014-Sep-10 15:33N 35°36' E 140°06'0 0.0
2014-Sep-10 14:34N 35°36' E 140°06'0 0.0
2014-Sep-10 13:33N 35°36' E 140°06'0 0.0
2014-Sep-10 12:33N 35°36' E 140°06'0 0.0
2014-Sep-10 11:34N 35°36' E 140°06'0 0.0
2014-Sep-10 10:33N 35°36' E 140°06'0 0.0
2014-Sep-10 09:33N 35°36' E 140°06'3 2.7
2014-Sep-10 08:33N 35°34' E 140°04'7 7.1
2014-Sep-10 07:33N 35°28' E 139°59'3 3.4
2014-Sep-10 06:33N 35°31' E 139°56'0 0.2
2014-Sep-10 05:33N 35°31' E 139°56'2 1.7
2014-Sep-10 04:33N 35°30' E 139°54'1 1.3
2014-Sep-10 03:33N 35°29' E 139°55'3 2.9
2014-Sep-10 02:33N 35°27' E 139°58'2 1.8
2014-Sep-10 01:33N 35°29' E 139°57'0 0.0
2014-Sep-10 00:33N 35°29' E 139°57'7 6.9
2014-Sep-09 23:34N 35°34' E 140°03'3 3.0
2014-Sep-09 22:33N 35°35' E 140°06'0 0.4
2014-Sep-09 21:34N 35°35' E 140°07'1 1.2
2014-Sep-09 20:33N 35°36' E 140°06'0 0.0
2014-Sep-09 19:33N 35°36' E 140°06'0 0.0
2014-Sep-09 18:33N 35°36' E 140°06'0 0.0
2014-Sep-09 17:33N 35°36' E 140°06'0 0.0
2014-Sep-09 16:33N 35°36' E 140°06'0 0.0
2014-Sep-09 15:33N 35°36' E 140°06'0 0.0
2014-Sep-09 14:33N 35°36' E 140°06'0 0.0
2014-Sep-09 13:33N 35°36' E 140°06'0 0.0
2014-Sep-09 12:33N 35°36' E 140°06'0 0.0
2014-Sep-09 11:34N 35°36' E 140°06'0 0.0
2014-Sep-09 10:33N 35°36' E 140°06'0 0.0
2014-Sep-09 09:33N 35°36' E 140°06'0 0.0
2014-Sep-09 08:33N 35°36' E 140°06'0 0.0
2014-Sep-09 07:33N 35°36' E 140°06'0 0.3
2014-Sep-09 06:33N 35°36' E 140°06'  
Track history (hours):
 
Tides and Currents Weather Stations Pressure Air Temp Water Temp Dewpoint Dewpoint Depression Visibility Wind Speed Wind Dir Waves Ship Positions

Kitanomaru

Last reported at 2014-Sep-19 05:33 UTC. Time now 2014-Sep-22 06:16 UTC.
Position N 35°33' E 140°03'.

Length 39 m; draft 4 m.

Type: Tug. MMSI: 431000773.

Date/timePositionNaut miles runAvg speedWind from/ knotsBaromVisibWave heightAir tempDewpointWater temp
2014-Sep-19 05:33N 35°33' E 140°03'4 4.0
2014-Sep-19 04:33N 35°36' E 140°07'0 0.0
2014-Sep-19 03:33N 35°36' E 140°07'0 0.0
2014-Sep-19 02:33N 35°36' E 140°07'0 0.0
2014-Sep-19 01:33N 35°36' E 140°07'0 0.0
2014-Sep-19 00:33N 35°36' E 140°07'0 0.0
2014-Sep-18 23:34N 35°36' E 140°07'2 1.9
2014-Sep-18 22:33N 35°35' E 140°05'1 0.7
2014-Sep-18 21:33N 35°35' E 140°04'0 0.1
2014-Sep-18 20:33N 35°35' E 140°04'2 2.3
2014-Sep-18 19:33N 35°36' E 140°06'0 0.0
2014-Sep-18 18:33N 35°36' E 140°06'0 0.0
2014-Sep-18 17:33N 35°36' E 140°06'0 0.0
2014-Sep-18 16:33N 35°36' E 140°06'0 0.0
2014-Sep-18 15:33N 35°36' E 140°06'0 0.0
2014-Sep-18 14:33N 35°36' E 140°06'0 0.0
2014-Sep-18 13:33N 35°36' E 140°06'0 0.0
2014-Sep-18 12:33N 35°36' E 140°06'0 0.0
2014-Sep-18 11:33N 35°36' E 140°06'0 0.0
2014-Sep-18 10:33N 35°36' E 140°06'0 0.0
2014-Sep-18 09:33N 35°36' E 140°06'0 0.0
2014-Sep-18 08:33N 35°36' E 140°06'0 0.0
2014-Sep-18 07:34N 35°36' E 140°06'0 0.0
2014-Sep-18 06:33N 35°36' E 140°06'0 0.0
2014-Sep-18 05:33N 35°36' E 140°06'0 0.0
2014-Sep-18 04:33N 35°36' E 140°06'0 0.0
2014-Sep-18 03:33N 35°36' E 140°06'0 0.0
2014-Sep-18 02:33N 35°36' E 140°06'4 4.1
2014-Sep-18 01:33N 35°34' E 140°02'3 2.9
2014-Sep-18 00:33N 35°31' E 140°00'2 1.8
2014-Sep-17 23:34N 35°31' E 140°02'6 6.0
2014-Sep-17 22:33N 35°36' E 140°06'0 0.0
2014-Sep-17 21:34N 35°36' E 140°06'0 0.0
2014-Sep-17 20:33N 35°36' E 140°06'0 0.0
2014-Sep-17 19:33N 35°36' E 140°06'0 0.0
2014-Sep-17 18:34N 35°36' E 140°06'0 0.0
2014-Sep-17 17:33N 35°36' E 140°06'0 0.0
2014-Sep-17 16:33N 35°36' E 140°06'0 0.0
2014-Sep-17 15:33N 35°36' E 140°06'0 0.0
2014-Sep-17 14:33N 35°36' E 140°06'0 0.0
2014-Sep-17 13:33N 35°36' E 140°06'0 0.0
2014-Sep-17 12:33N 35°36' E 140°06'0 0.0
2014-Sep-17 11:33N 35°36' E 140°06'0 0.0
2014-Sep-17 10:33N 35°36' E 140°06'0 0.0
2014-Sep-17 09:34N 35°36' E 140°06'0 0.0
2014-Sep-17 08:33N 35°36' E 140°06'0 0.0
2014-Sep-17 07:34N 35°36' E 140°06'0 0.0
2014-Sep-17 06:34N 35°36' E 140°06'4 3.6
2014-Sep-17 05:33N 35°34' E 140°03'3 2.6
2014-Sep-17 04:33N 35°31' E 140°02'1 1.2
2014-Sep-17 03:33N 35°31' E 140°01'0 0.2
2014-Sep-17 02:33N 35°31' E 140°01'6 5.6
2014-Sep-17 01:33N 35°36' E 140°05'1 0.6
2014-Sep-17 00:33N 35°35' E 140°04'2 1.5
2014-Sep-16 23:33N 35°34' E 140°03'3 2.6
2014-Sep-16 22:33N 35°32' E 140°05'5 4.9
2014-Sep-16 21:34N 35°35' E 140°00'5 5.4
2014-Sep-16 20:33N 35°36' E 140°06'0 0.0
2014-Sep-16 19:33N 35°36' E 140°06'0 0.0
2014-Sep-16 18:33N 35°36' E 140°06'0 0.0
2014-Sep-16 17:33N 35°36' E 140°06'0 0.0
2014-Sep-16 16:33N 35°36' E 140°06'0 0.0
2014-Sep-16 15:34N 35°36' E 140°06'0 0.0
2014-Sep-16 14:33N 35°36' E 140°06'0 0.0
2014-Sep-16 13:34N 35°36' E 140°06'0 0.0
2014-Sep-16 12:33N 35°36' E 140°06'0 0.0
2014-Sep-16 11:33N 35°36' E 140°06'0 0.0
2014-Sep-16 10:33N 35°36' E 140°06'0 0.0
2014-Sep-16 09:33N 35°36' E 140°06'0 0.0
2014-Sep-16 08:33N 35°36' E 140°06'0 0.0
2014-Sep-16 07:33N 35°36' E 140°06'0 0.0
2014-Sep-16 06:34N 35°36' E 140°06'0 0.0
2014-Sep-16 05:34N 35°36' E 140°06'0 0.0
2014-Sep-16 04:33N 35°36' E 140°06'0 0.0
2014-Sep-16 03:33N 35°36' E 140°06'0 0.0
2014-Sep-16 02:33N 35°36' E 140°06'0 0.0
2014-Sep-16 01:33N 35°36' E 140°06'4 4.1
2014-Sep-16 00:33N 35°33' E 140°03'6 6.0
2014-Sep-15 23:34N 35°29' E 139°58'4 4.1
2014-Sep-15 22:33N 35°32' E 140°02'6 5.9
2014-Sep-15 21:34N 35°36' E 140°06'0 0.0
2014-Sep-15 20:33N 35°36' E 140°06'0 0.0
2014-Sep-15 19:33N 35°36' E 140°06'0 0.0
2014-Sep-15 18:33N 35°36' E 140°06'0 0.0
2014-Sep-15 17:33N 35°36' E 140°06'0 0.0
2014-Sep-15 16:33N 35°36' E 140°06'0 0.0
2014-Sep-15 15:33N 35°36' E 140°06'0 0.0
2014-Sep-15 14:33N 35°36' E 140°06'0 0.0
2014-Sep-15 13:33N 35°36' E 140°06'0 0.0
2014-Sep-15 12:33N 35°36' E 140°06'0 0.0
2014-Sep-15 11:33N 35°36' E 140°06'0 0.0
2014-Sep-15 10:33N 35°36' E 140°06'0 0.0
2014-Sep-15 09:33N 35°36' E 140°06'0 0.0
2014-Sep-15 08:33N 35°36' E 140°06'0 0.1
2014-Sep-15 07:33N 35°36' E 140°06'1010.1
2014-Sep-15 06:34N 35°29' E 139°58'1 0.7
2014-Sep-15 05:33N 35°28' E 139°58'1 1.1
2014-Sep-15 04:33N 35°29' E 139°57'0 0.0
2014-Sep-15 03:33N 35°29' E 139°57'0 0.0
2014-Sep-15 02:33N 35°29' E 139°57'0 0.0
2014-Sep-15 01:34N 35°29' E 139°57'2 2.1
2014-Sep-15 00:33N 35°31' E 139°56'0 0.1
2014-Sep-14 23:33N 35°31' E 139°56'3 2.6
2014-Sep-14 22:33N 35°29' E 139°53'5 4.9
2014-Sep-14 21:33N 35°32' E 139°58'8 7.6
2014-Sep-14 20:33N 35°36' E 140°06'0 0.0
2014-Sep-14 19:33N 35°36' E 140°06'0 0.0
2014-Sep-14 18:33N 35°36' E 140°06'0 0.0
2014-Sep-14 17:33N 35°36' E 140°06'0 0.0
2014-Sep-14 16:33N 35°36' E 140°06'0 0.0
2014-Sep-14 15:33N 35°36' E 140°06'0 0.0
2014-Sep-14 14:33N 35°36' E 140°06'0 0.0
2014-Sep-14 13:33N 35°36' E 140°06'0 0.0
2014-Sep-14 12:33N 35°36' E 140°06'0 0.0
2014-Sep-14 11:33N 35°36' E 140°06'0 0.0
2014-Sep-14 10:33N 35°36' E 140°06'0 0.0
2014-Sep-14 09:33N 35°36' E 140°06'7 7.3
2014-Sep-14 08:33N 35°31' E 139°60'3 3.0
2014-Sep-14 07:33N 35°28' E 139°58'1 1.0
2014-Sep-14 06:34N 35°29' E 139°57'0 0.5
2014-Sep-14 05:34N 35°29' E 139°58'1 0.6
2014-Sep-14 04:33N 35°29' E 139°59'2 2.3
2014-Sep-14 03:33N 35°30' E 140°01'2 1.9
2014-Sep-14 02:33N 35°31' E 139°60'6 6.1
2014-Sep-14 01:33N 35°36' E 140°05'1 0.3
2014-Sep-13 21:33N 35°36' E 140°06'0 0.0
2014-Sep-13 20:33N 35°36' E 140°06'0 0.0
2014-Sep-13 19:33N 35°36' E 140°06'0 0.0
2014-Sep-13 18:34N 35°36' E 140°06'0 0.0
2014-Sep-13 17:33N 35°36' E 140°06'0 0.0
2014-Sep-13 16:34N 35°36' E 140°06'0 0.0
2014-Sep-13 15:33N 35°36' E 140°06'0 0.0
2014-Sep-13 14:33N 35°36' E 140°06'0 0.0
2014-Sep-13 13:34N 35°36' E 140°06'0 0.0
2014-Sep-13 12:33N 35°36' E 140°06'0 0.0
2014-Sep-13 11:34N 35°36' E 140°06'0 0.0
2014-Sep-13 10:33N 35°36' E 140°06'0 0.0
2014-Sep-13 09:34N 35°36' E 140°06'0 0.0
2014-Sep-13 08:33N 35°36' E 140°06'0 0.0
2014-Sep-13 07:34N 35°36' E 140°06'6 5.6
2014-Sep-13 06:33N 35°32' E 140°02'3 3.3
2014-Sep-13 05:33N 35°29' E 140°01'2 1.6
2014-Sep-13 04:33N 35°29' E 139°59'1 0.6
2014-Sep-13 03:34N 35°28' E 139°58'1 0.9
2014-Sep-13 02:33N 35°28' E 139°57'0 0.1
2014-Sep-13 01:33N 35°28' E 139°57'0 0.1
2014-Sep-13 00:33N 35°28' E 139°57'1 1.1
2014-Sep-12 23:33N 35°28' E 139°58'0 0.4
2014-Sep-12 22:34N 35°29' E 139°59'5 5.0
2014-Sep-12 21:34N 35°33' E 140°02'4 4.3
2014-Sep-12 20:33N 35°36' E 140°05'1 1.3
2014-Sep-12 19:33N 35°36' E 140°06'0 0.0
2014-Sep-12 18:33N 35°36' E 140°06'0 0.0
2014-Sep-12 17:33N 35°36' E 140°06'0 0.0
2014-Sep-12 16:33N 35°36' E 140°06'0 0.0
2014-Sep-12 15:33N 35°36' E 140°06'0 0.0
2014-Sep-12 14:34N 35°36' E 140°06'0 0.0
2014-Sep-12 13:34N 35°36' E 140°06'0 0.0
2014-Sep-12 12:33N 35°36' E 140°06'0 0.0
2014-Sep-12 11:33N 35°36' E 140°06'0 0.0
2014-Sep-12 10:33N 35°36' E 140°06'0 0.0
2014-Sep-12 09:33N 35°36' E 140°06'0 0.0
2014-Sep-12 08:33N 35°36' E 140°06'3 3.3
2014-Sep-12 07:34N 35°34' E 140°04'2 2.2
2014-Sep-12 06:34N 35°32' E 140°02'0 0.0
2014-Sep-12 05:33N 35°32' E 140°02'0 0.0
2014-Sep-12 04:33N 35°32' E 140°02'0 0.0
2014-Sep-12 03:34N 35°32' E 140°02'2 2.5
2014-Sep-12 02:33N 35°30' E 140°01'1 0.9
2014-Sep-12 01:33N 35°29' E 140°00'2 2.2
2014-Sep-12 00:33N 35°31' E 139°60'2 2.2
2014-Sep-11 23:33N 35°31' E 140°02'6 6.0
2014-Sep-11 22:33N 35°36' E 140°06'0 0.0
2014-Sep-11 21:33N 35°36' E 140°06'0 0.0
2014-Sep-11 20:34N 35°36' E 140°06'0 0.0
2014-Sep-11 19:33N 35°36' E 140°06'0 0.0
2014-Sep-11 18:33N 35°36' E 140°06'0 0.0
2014-Sep-11 17:34N 35°36' E 140°06'0 0.0
2014-Sep-11 16:33N 35°36' E 140°06'0 0.0
2014-Sep-11 15:33N 35°36' E 140°06'0 0.0
2014-Sep-11 14:33N 35°36' E 140°06'0 0.0
2014-Sep-11 13:33N 35°36' E 140°06'0 0.0
2014-Sep-11 12:33N 35°36' E 140°06'0 0.0
2014-Sep-11 11:33N 35°36' E 140°06'0 0.0
2014-Sep-11 10:33N 35°36' E 140°06'0 0.0
2014-Sep-11 09:33N 35°36' E 140°06'0 0.0
2014-Sep-11 08:33N 35°36' E 140°06'0 0.0
2014-Sep-11 07:33N 35°36' E 140°06'0 0.0
2014-Sep-11 06:33N 35°36' E 140°06'0 0.4
2014-Sep-11 05:33N 35°36' E 140°06'5 5.4
2014-Sep-11 04:33N 35°34' E 139°60'0 0.0
2014-Sep-11 03:33N 35°34' E 139°60'0 0.0
2014-Sep-11 02:33N 35°34' E 139°60'4 4.2
2014-Sep-11 01:33N 35°30' E 140°02'0 0.0
2014-Sep-11 00:33N 35°30' E 140°02'2 1.5
2014-Sep-10 23:33N 35°31' E 140°00'7 7.0
2014-Sep-10 22:34N 35°36' E 140°06'0 0.0
2014-Sep-10 21:33N 35°36' E 140°06'0 0.0
2014-Sep-10 20:33N 35°36' E 140°06'0 0.0
2014-Sep-10 19:33N 35°36' E 140°06'0 0.0
2014-Sep-10 18:34N 35°36' E 140°06'0 0.0
2014-Sep-10 17:33N 35°36' E 140°06'0 0.0
2014-Sep-10 16:33N 35°36' E 140°06'0 0.0
2014-Sep-10 15:33N 35°36' E 140°06'0 0.0
2014-Sep-10 14:34N 35°36' E 140°06'0 0.0
2014-Sep-10 13:33N 35°36' E 140°06'0 0.0
2014-Sep-10 12:33N 35°36' E 140°06'0 0.0
2014-Sep-10 11:34N 35°36' E 140°06'0 0.0
2014-Sep-10 10:33N 35°36' E 140°06'0 0.0
2014-Sep-10 09:33N 35°36' E 140°06'3 2.7
2014-Sep-10 08:33N 35°34' E 140°04'7 7.1
2014-Sep-10 07:33N 35°28' E 139°59'3 3.4
2014-Sep-10 06:33N 35°31' E 139°56'0 0.2
2014-Sep-10 05:33N 35°31' E 139°56'2 1.7
2014-Sep-10 04:33N 35°30' E 139°54'1 1.3
2014-Sep-10 03:33N 35°29' E 139°55'3 2.9
2014-Sep-10 02:33N 35°27' E 139°58'2 1.8
2014-Sep-10 01:33N 35°29' E 139°57'0 0.0
2014-Sep-10 00:33N 35°29' E 139°57'7 6.9
2014-Sep-09 23:34N 35°34' E 140°03'3 3.0
2014-Sep-09 22:33N 35°35' E 140°06'0 0.4
2014-Sep-09 21:34N 35°35' E 140°07'1 1.2
2014-Sep-09 20:33N 35°36' E 140°06'0 0.0
2014-Sep-09 19:33N 35°36' E 140°06'0 0.0
2014-Sep-09 18:33N 35°36' E 140°06'0 0.0
2014-Sep-09 17:33N 35°36' E 140°06'0 0.0
2014-Sep-09 16:33N 35°36' E 140°06'0 0.0
2014-Sep-09 15:33N 35°36' E 140°06'0 0.0
2014-Sep-09 14:33N 35°36' E 140°06'0 0.0
2014-Sep-09 13:33N 35°36' E 140°06'0 0.0
2014-Sep-09 12:33N 35°36' E 140°06'0 0.0
2014-Sep-09 11:34N 35°36' E 140°06'0 0.0
2014-Sep-09 10:33N 35°36' E 140°06'0 0.0
2014-Sep-09 09:33N 35°36' E 140°06'0 0.0
2014-Sep-09 08:33N 35°36' E 140°06'0 0.0
2014-Sep-09 07:33N 35°36' E 140°06'0 0.3
2014-Sep-09 06:33N 35°36' E 140°06'  

Dump ship's entire track history